Time;durP1;ratioP1;P1;durP2;ratioP2;P2;SDS_P1;SDS_P2;PMS_P1;PMS_P2;Temp;Humidity;BMP_temperature;BMP_pressure;BME280_temperature;BME280_humidity;BME280_pressure;Samples;Min_cycle;Max_cycle;Signal;HPM_P1;HPM_P2
2022/11/28 00:01:43;;;;;;;30.63;13.95;;;1.40;99.90;;;;;;5072594;28;20024;-81
2022/11/28 00:04:09;;;;;;;32.28;14.85;;;1.40;99.90;;;;;;5056036;28;20112;-81
2022/11/28 00:06:44;;;;;;;23.90;13.52;;;1.40;99.90;;;;;;5072910;28;20464;-81
2022/11/28 00:09:10;;;;;;;23.42;14.23;;;1.40;99.90;;;;;;5073053;28;20489;-81
2022/11/28 00:11:37;;;;;;;32.20;15.60;;;1.40;99.90;;;;;;5074150;28;20035;-81
2022/11/28 00:14:03;;;;;;;29.98;16.58;;;1.40;99.90;;;;;;5074150;28;20028;-80
2022/11/28 00:16:29;;;;;;;27.00;14.38;;;1.40;99.90;;;;;;5072711;28;20020;-80
2022/11/28 00:18:55;;;;;;;28.25;15.73;;;1.40;99.90;;;;;;5072850;28;20032;-80
2022/11/28 00:21:23;;;;;;;29.33;16.05;;;1.40;99.90;;;;;;5074014;28;20024;-80
2022/11/28 00:23:49;;;;;;;30.77;17.75;;;1.40;99.90;;;;;;5060842;28;20028;-81
2022/11/28 00:26:18;;;;;;;33.90;18.98;;;1.40;99.90;;;;;;5053866;28;20025;-80
2022/11/28 00:28:44;;;;;;;32.90;17.33;;;1.40;99.90;;;;;;5053343;28;20024;-81
2022/11/28 00:31:19;;;;;;;36.42;18.23;;;1.40;99.90;;;;;;5052844;28;20035;-81
2022/11/28 00:33:44;;;;;;;31.77;18.95;;;1.30;99.90;;;;;;5052462;28;20060;-80
2022/11/28 00:36:11;;;;;;;31.38;16.75;;;1.30;99.90;;;;;;5053732;28;20054;-81
2022/11/28 00:38:37;;;;;;;30.63;18.83;;;1.30;99.90;;;;;;5052552;28;20478;-81
2022/11/28 00:41:08;;;;;;;37.55;17.75;;;1.30;99.90;;;;;;5052224;28;20060;-81
2022/11/28 00:43:34;;;;;;;36.45;19.33;;;1.20;99.90;;;;;;5052287;28;20487;-80
2022/11/28 00:45:59;;;;;;;35.00;17.58;;;1.20;99.90;;;;;;5052227;28;20040;-81
2022/11/28 00:48:25;;;;;;;31.80;16.95;;;1.20;99.90;;;;;;5052292;28;20048;-82
2022/11/28 00:50:52;;;;;;;36.70;17.98;;;1.20;99.90;;;;;;5053500;28;20463;-81
2022/11/28 00:53:18;;;;;;;34.17;18.52;;;1.10;99.90;;;;;;5052162;28;20479;-82
2022/11/28 00:55:44;;;;;;;40.72;18.75;;;1.20;99.90;;;;;;5052114;28;20120;-80
2022/11/28 00:58:09;;;;;;;33.83;19.48;;;1.10;99.90;;;;;;5052236;28;20479;-81
2022/11/28 01:00:35;;;;;;;39.65;18.73;;;1.10;99.90;;;;;;5051816;28;20033;-81
2022/11/28 01:03:01;;;;;;;39.40;20.92;;;1.10;99.90;;;;;;5054542;28;20445;-81
2022/11/28 01:05:27;;;;;;;41.05;18.95;;;1.10;99.90;;;;;;5073318;28;20052;-80
2022/11/28 01:07:52;;;;;;;37.47;19.58;;;1.10;99.90;;;;;;5072064;28;20032;-81
2022/11/28 01:10:18;;;;;;;49.25;21.48;;;1.10;99.90;;;;;;5073364;28;20482;-81
2022/11/28 01:12:44;;;;;;;36.17;20.23;;;1.10;99.90;;;;;;5073300;28;20028;-81
2022/11/28 01:15:11;;;;;;;36.50;17.90;;;1.20;99.90;;;;;;5071974;28;20394;-80
2022/11/28 01:17:37;;;;;;;37.80;18.70;;;1.20;99.90;;;;;;5071769;28;20469;-80
2022/11/28 01:20:06;;;;;;;38.08;18.27;;;1.20;99.90;;;;;;5071863;28;20012;-80
2022/11/28 01:22:32;;;;;;;45.10;22.05;;;1.20;99.90;;;;;;5069111;28;20029;-81
2022/11/28 01:24:57;;;;;;;39.85;19.65;;;1.20;99.90;;;;;;5051746;28;20070;-81
2022/11/28 01:27:23;;;;;;;38.75;18.83;;;1.20;99.90;;;;;;5051747;28;20486;-81
2022/11/28 01:29:48;;;;;;;45.55;20.50;;;1.20;99.90;;;;;;5051949;28;20506;-82
2022/11/28 01:32:14;;;;;;;38.20;19.17;;;1.20;99.90;;;;;;5051695;28;20034;-81
2022/11/28 01:34:40;;;;;;;35.40;18.50;;;1.20;99.90;;;;;;5051606;28;20104;-81
2022/11/28 01:37:05;;;;;;;39.20;19.45;;;1.20;99.90;;;;;;5053042;28;20391;-81
2022/11/28 01:39:31;;;;;;;40.00;19.17;;;1.20;99.90;;;;;;5051663;28;20117;-81
2022/11/28 01:41:56;;;;;;;37.60;19.42;;;1.20;99.90;;;;;;5051604;28;20025;-82
2022/11/28 01:44:22;;;;;;;35.40;18.25;;;1.20;99.90;;;;;;5053769;28;20452;-82
2022/11/28 01:46:48;;;;;;;33.95;18.83;;;1.20;99.90;;;;;;5055694;28;20044;-81
2022/11/28 01:49:20;;;;;;;44.03;20.00;;;1.20;99.90;;;;;;5056948;28;20482;-82
2022/11/28 01:51:49;;;;;;;36.78;17.98;;;1.20;99.90;;;;;;5056969;28;20109;-82
2022/11/28 01:54:19;;;;;;;37.78;19.17;;;1.20;99.90;;;;;;5055592;28;20120;-81
2022/11/28 01:56:51;;;;;;;31.15;17.40;;;1.20;99.90;;;;;;5055439;28;20116;-81
2022/11/28 01:59:18;;;;;;;36.70;17.35;;;1.20;99.90;;;;;;5055625;28;20079;-81
2022/11/28 02:01:44;;;;;;;34.88;18.45;;;1.20;99.90;;;;;;5056777;28;20486;-81
2022/11/28 02:04:12;;;;;;;31.05;16.52;;;1.20;99.90;;;;;;5069903;28;20082;-82
2022/11/28 02:06:39;;;;;;;36.45;17.95;;;1.30;99.90;;;;;;5077081;28;20025;-80
2022/11/28 02:09:13;;;;;;;31.85;16.52;;;1.30;99.90;;;;;;5078046;28;20050;-81
2022/11/28 02:11:46;;;;;;;26.02;15.00;;;1.30;99.90;;;;;;5076387;28;20013;-81
2022/11/28 02:14:11;;;;;;;;;;;1.30;99.90;;;;;;5076789;28;20154;-81
2022/11/28 02:16:37;;;;;;;38.15;15.13;;;1.30;99.90;;;;;;5069691;28;20334;-80
2022/11/28 02:19:43;;;;;;;34.25;16.70;;;1.30;99.90;;;;;;5055213;28;20032;-81
2022/11/28 02:22:27;;;;;;;30.52;15.85;;;1.30;99.90;;;;;;5056364;28;20486;-80
2022/11/28 02:25:14;;;;;;;24.10;13.98;;;1.30;99.90;;;;;;5055138;28;20435;-81
2022/11/28 02:27:54;;;;;;;25.45;15.88;;;1.30;99.90;;;;;;5056150;28;20086;-81
2022/11/28 02:30:25;;;;;;;27.95;15.43;;;1.30;99.90;;;;;;5054983;28;20064;-81
2022/11/28 02:33:11;;;;;;;31.67;14.93;;;1.40;99.90;;;;;;5056347;28;20025;-80
2022/11/28 02:35:48;;;;;;;29.85;14.38;;;1.30;99.90;;;;;;5073712;28;20070;-81
2022/11/28 02:38:46;;;;;;;31.33;15.25;;;1.40;99.90;;;;;;5076056;28;20020;-81
2022/11/28 02:41:39;;;;;;;28.10;14.63;;;1.40;99.90;;;;;;5071342;28;20086;-81
2022/11/28 02:44:08;;;;;;;27.02;14.32;;;1.30;99.90;;;;;;5074546;28;20127;-81
2022/11/28 02:46:47;;;;;;;26.83;14.95;;;1.30;99.90;;;;;;5074467;28;20032;-81
2022/11/28 02:49:22;;;;;;;31.48;14.95;;;1.30;99.90;;;;;;5074564;28;20111;-81
2022/11/28 02:51:54;;;;;;;28.02;14.73;;;1.30;99.90;;;;;;5075996;28;20032;-80
2022/11/28 02:54:22;;;;;;;36.22;16.63;;;1.30;99.90;;;;;;5075607;28;20074;-80
2022/11/28 02:56:52;;;;;;;26.92;14.25;;;1.30;99.90;;;;;;5074382;28;20027;-81
2022/11/28 02:59:38;;;;;;;29.23;14.90;;;1.30;99.90;;;;;;5075655;28;20489;-81
2022/11/28 03:02:09;;;;;;;33.58;16.30;;;1.30;99.90;;;;;;5067434;28;20024;-81
2022/11/28 03:05:03;;;;;;;25.73;14.70;;;1.30;99.90;;;;;;5059255;28;20032;-81
2022/11/28 03:07:50;;;;;;;30.05;14.68;;;1.20;99.90;;;;;;5034086;28;20103;-81
2022/11/28 03:10:31;;;;;;;28.05;15.25;;;1.30;99.90;;;;;;5034209;28;20057;-81
2022/11/28 03:13:28;;;;;;;25.15;14.98;;;1.30;99.90;;;;;;5035422;28;20087;-81
2022/11/28 03:16:16;;;;;;;26.25;14.38;;;1.30;99.90;;;;;;5034240;28;20029;-80
2022/11/28 03:18:57;;;;;;;30.05;16.50;;;1.30;99.90;;;;;;5033961;28;20479;-81
2022/11/28 03:21:46;;;;;;;34.75;15.48;;;1.30;99.90;;;;;;5033992;28;20022;-81
2022/11/28 03:24:35;;;;;;;30.35;15.88;;;1.30;99.90;;;;;;5053166;28;20032;-81
2022/11/28 03:27:24;;;;;;;32.13;17.42;;;1.20;99.90;;;;;;5053878;28;20044;-81
2022/11/28 03:29:54;;;;;;;30.08;15.77;;;1.20;99.90;;;;;;5055003;28;20490;-81
2022/11/28 03:32:32;;;;;;;34.60;17.98;;;1.20;99.90;;;;;;5053784;28;20071;-82
2022/11/28 03:35:11;;;;;;;30.15;15.80;;;1.20;99.90;;;;;;5053546;28;20115;-81
2022/11/28 03:37:51;;;;;;;33.28;17.23;;;1.20;99.90;;;;;;5053596;28;20059;-81
2022/11/28 03:40:22;;;;;;;37.08;18.55;;;1.20;99.90;;;;;;5054222;28;20041;-81
2022/11/28 03:42:56;;;;;;;34.15;18.98;;;1.20;99.90;;;;;;5053585;28;20033;-81
2022/11/28 03:45:25;;;;;;;40.00;19.95;;;1.20;99.90;;;;;;5054658;28;20021;-80
2022/11/28 03:47:57;;;;;;;41.20;21.05;;;1.20;99.90;;;;;;5054616;28;20068;-81
2022/11/28 03:50:30;;;;;;;35.20;18.83;;;1.10;99.90;;;;;;5053343;28;20111;-81
2022/11/28 03:53:02;;;;;;;36.67;18.02;;;1.10;99.90;;;;;;5054609;28;20021;-80
2022/11/28 03:55:36;;;;;;;42.75;20.95;;;1.10;99.90;;;;;;5053216;28;20028;-80
2022/11/28 03:58:22;;;;;;;38.80;21.77;;;1.10;99.90;;;;;;5053393;28;20502;-80
2022/11/28 04:01:32;;;;;;;37.85;19.52;;;1.10;99.90;;;;;;5052730;28;20032;-81
2022/11/28 04:04:21;;;;;;;41.97;21.20;;;1.10;99.90;;;;;;5012487;28;20022;-81
2022/11/28 04:06:54;;;;;;;39.88;21.42;;;1.10;99.90;;;;;;4995477;28;20399;-81
2022/11/28 04:09:28;;;;;;;;;;;1.10;99.90;;;;;;5020564;28;20040;-81
2022/11/28 04:12:01;;;;;;;41.15;19.63;;;1.10;99.90;;;;;;5033152;28;19905;-81
2022/11/28 04:14:36;;;;;;;41.80;19.77;;;1.10;99.90;;;;;;5049551;28;20021;-81
2022/11/28 04:17:49;;;;;;;47.83;23.38;;;1.10;99.90;;;;;;5049603;28;20504;-80
2022/11/28 04:20:28;;;;;;;;;;;1.10;99.90;;;;;;4993124;28;20501;-81
2022/11/28 04:23:00;;;;;;;42.08;20.40;;;1.10;99.90;;;;;;4983845;28;19905;-81
2022/11/28 04:25:29;;;;;;;42.80;20.27;;;1.00;99.90;;;;;;5049200;28;20041;-81
2022/11/28 04:28:03;;;;;;;47.25;21.33;;;1.10;99.90;;;;;;5052705;28;20123;-81
2022/11/28 04:30:29;;;;;;;46.20;23.17;;;1.10;99.90;;;;;;5052524;28;20536;-81
2022/11/28 04:33:06;;;;;;;37.47;20.33;;;1.00;99.90;;;;;;5053872;28;20024;-81
2022/11/28 04:35:36;;;;;;;42.80;23.15;;;1.00;99.90;;;;;;5052525;28;20021;-81
2022/11/28 04:38:05;;;;;;;42.20;21.33;;;1.00;99.90;;;;;;5052614;28;20021;-81
2022/11/28 04:40:35;;;;;;;48.22;23.40;;;1.10;99.90;;;;;;5053675;28;20487;-81
2022/11/28 04:43:06;;;;;;;50.50;24.48;;;1.00;99.90;;;;;;5052323;28;20049;-80
2022/11/28 04:45:36;;;;;;;40.55;23.65;;;1.00;99.90;;;;;;5052272;28;20112;-80
2022/11/28 04:48:02;;;;;;;44.08;23.88;;;1.00;99.90;;;;;;5052274;28;20032;-81
2022/11/28 04:50:42;;;;;;;58.83;23.83;;;1.00;99.90;;;;;;5053487;28;20072;-81
2022/11/28 04:53:44;;;;;;;43.85;21.70;;;1.00;99.90;;;;;;5052723;28;20110;-81
2022/11/28 04:56:19;;;;;;;45.97;23.13;;;1.00;99.90;;;;;;5041989;28;20094;-81
2022/11/28 04:58:47;;;;;;;46.38;23.50;;;1.00;99.90;;;;;;5053438;28;20024;-81
2022/11/28 05:01:22;;;;;;;49.63;23.65;;;1.00;99.90;;;;;;5052042;28;20021;-81
2022/11/28 05:03:48;;;;;;;48.83;24.10;;;1.00;99.90;;;;;;5052573;28;20021;-81
2022/11/28 05:06:34;;;;;;;47.03;25.25;;;1.00;99.90;;;;;;5053168;28;20037;-81
2022/11/28 05:09:00;;;;;;;50.35;23.95;;;1.00;99.90;;;;;;5052084;28;20036;-81
2022/11/28 05:11:26;;;;;;;48.95;25.77;;;1.00;99.90;;;;;;5053088;28;20033;-81
2022/11/28 05:13:53;;;;;;;39.85;24.42;;;1.00;99.90;;;;;;5053461;28;20143;-81
2022/11/28 05:16:18;;;;;;;46.92;24.58;;;1.00;99.90;;;;;;5053106;28;20572;-81
2022/11/28 05:18:44;;;;;;;49.75;25.13;;;1.00;99.90;;;;;;5064699;28;20112;-81
2022/11/28 05:21:10;;;;;;;51.88;25.13;;;1.00;99.90;;;;;;5071907;28;20028;-81
2022/11/28 05:23:37;;;;;;;49.22;24.85;;;1.00;99.90;;;;;;5057795;28;20038;-81
2022/11/28 05:26:17;;;;;;;50.83;26.23;;;1.00;99.90;;;;;;5051693;28;20021;-82
2022/11/28 05:28:46;;;;;;;49.70;25.08;;;1.00;99.90;;;;;;5051784;28;20025;-82
2022/11/28 05:31:13;;;;;;;54.22;24.13;;;1.00;99.90;;;;;;5051736;28;20083;-81
2022/11/28 05:33:39;;;;;;;55.33;26.30;;;0.90;99.90;;;;;;5051715;28;20040;-81
2022/11/28 05:36:07;;;;;;;49.55;28.55;;;0.90;99.90;;;;;;5051634;28;20383;-81
2022/11/28 05:38:33;;;;;;;54.30;27.65;;;0.90;99.90;;;;;;5051615;28;20053;-81
2022/11/28 05:41:00;;;;;;;66.50;33.72;;;0.90;99.90;;;;;;5051600;28;20021;-81
2022/11/28 05:43:26;;;;;;;57.67;30.25;;;1.00;99.90;;;;;;5051466;28;20071;-81
2022/11/28 05:45:52;;;;;;;55.67;28.48;;;1.00;99.90;;;;;;5051381;28;20425;-81
2022/11/28 05:48:18;;;;;;;51.20;24.48;;;1.00;99.90;;;;;;5051590;28;20021;-82
2022/11/28 05:50:43;;;;;;;57.63;28.13;;;1.00;99.90;;;;;;5052800;28;20045;-81
2022/11/28 05:53:09;;;;;;;47.58;25.95;;;1.00;99.90;;;;;;5052681;28;20029;-81
2022/11/28 05:55:38;;;;;;;51.38;25.83;;;1.00;99.90;;;;;;5052589;28;20108;-80
2022/11/28 05:58:04;;;;;;;50.72;25.63;;;1.00;99.90;;;;;;5051586;28;20013;-81
2022/11/28 06:00:30;;;;;;;47.70;26.35;;;1.00;99.90;;;;;;5052762;28;20425;-81
2022/11/28 06:02:56;;;;;;;50.42;25.88;;;1.00;99.90;;;;;;5051548;28;20024;-81
2022/11/28 06:05:22;;;;;;;52.75;24.75;;;0.90;99.90;;;;;;5052602;28;20037;-81
2022/11/28 06:07:47;;;;;;;48.67;26.92;;;0.90;99.90;;;;;;5052685;28;20032;-81
2022/11/28 06:10:13;;;;;;;52.42;24.25;;;0.90;99.90;;;;;;5051276;28;20025;-81
2022/11/28 06:12:39;;;;;;;46.25;24.80;;;0.90;99.90;;;;;;5051390;28;20394;-81
2022/11/28 06:15:05;;;;;;;54.33;26.02;;;0.90;99.90;;;;;;5066366;28;20402;-80
2022/11/28 06:17:31;;;;;;;52.97;27.02;;;0.90;99.90;;;;;;5072962;28;20024;-81
2022/11/28 06:19:57;;;;;;;56.63;29.10;;;0.90;99.90;;;;;;5073367;28;20035;-80
2022/11/28 06:22:23;;;;;;;50.92;25.00;;;1.00;99.90;;;;;;5061168;28;20479;-82
2022/11/28 06:24:48;;;;;;;49.75;24.48;;;1.00;99.90;;;;;;5049357;28;20056;-82
2022/11/28 06:27:14;;;;;;;48.80;26.20;;;1.00;99.90;;;;;;5054031;28;20554;-82
2022/11/28 06:29:40;;;;;;;49.78;24.65;;;1.00;99.90;;;;;;5069753;28;20056;-81
2022/11/28 06:32:06;;;;;;;43.40;23.40;;;1.00;99.90;;;;;;5043066;28;20061;-82
2022/11/28 06:34:32;;;;;;;49.05;26.65;;;1.00;99.90;;;;;;5045520;28;20038;-82
2022/11/28 06:36:57;;;;;;;50.95;26.05;;;1.00;99.90;;;;;;5049868;28;20074;-81
2022/11/28 06:39:23;;;;;;;49.03;25.45;;;1.00;99.90;;;;;;5056560;28;20079;-81
2022/11/28 06:41:49;;;;;;;47.25;26.20;;;1.00;99.90;;;;;;5063372;28;20501;-83
2022/11/28 06:44:15;;;;;;;54.92;26.33;;;1.00;99.90;;;;;;5075717;28;20390;-82
2022/11/28 06:46:42;;;;;;;53.90;26.77;;;1.00;99.90;;;;;;5074632;28;20037;-82
2022/11/28 06:49:12;;;;;;;57.38;25.75;;;0.90;99.90;;;;;;5076014;28;20044;-83
2022/11/28 06:51:39;;;;;;;57.67;27.63;;;0.90;99.90;;;;;;5074326;28;20016;-82
2022/11/28 06:54:06;;;;;;;56.42;27.20;;;0.90;99.90;;;;;;5068427;28;20130;-82
2022/11/28 06:56:31;;;;;;;56.75;28.48;;;0.90;99.90;;;;;;5055923;28;20029;-82
2022/11/28 06:58:58;;;;;;;55.63;27.17;;;0.90;99.90;;;;;;5056267;28;20157;-82
2022/11/28 07:01:26;;;;;;;58.40;29.73;;;0.90;99.90;;;;;;5054523;28;20017;-81
2022/11/28 07:03:55;;;;;;;48.78;26.05;;;0.90;99.90;;;;;;5066898;28;20096;-81
2022/11/28 07:06:22;;;;;;;52.15;26.52;;;0.90;99.90;;;;;;5074358;28;20033;-81
2022/11/28 07:08:48;;;;;;;53.78;26.48;;;1.00;99.90;;;;;;5074318;28;20065;-82
2022/11/28 07:11:17;;;;;;;56.25;27.23;;;1.00;99.90;;;;;;5074063;28;20486;-82
2022/11/28 07:13:44;;;;;;;51.75;26.85;;;1.00;99.90;;;;;;5075503;28;20020;-81
2022/11/28 07:16:19;;;;;;;53.45;26.60;;;1.00;99.90;;;;;;5073765;28;20088;-82
2022/11/28 07:18:45;;;;;;;49.35;25.00;;;1.00;99.90;;;;;;5073657;28;20105;-82
2022/11/28 07:21:13;;;;;;;49.60;26.17;;;1.00;99.90;;;;;;5074381;28;20064;-82
2022/11/28 07:23:39;;;;;;;48.35;24.83;;;1.10;99.90;;;;;;5058002;28;20021;-82
2022/11/28 07:26:05;;;;;;;57.38;27.38;;;1.00;99.90;;;;;;5053164;28;20402;-82
2022/11/28 07:28:33;;;;;;;52.22;24.50;;;1.10;99.90;;;;;;5053223;28;20025;-82
2022/11/28 07:31:09;;;;;;;57.95;27.00;;;1.10;99.90;;;;;;5054205;28;20025;-82
2022/11/28 07:33:36;;;;;;;59.35;28.48;;;1.10;99.90;;;;;;5054491;28;20025;-82
2022/11/28 07:36:05;;;;;;;57.50;25.80;;;1.10;99.90;;;;;;5056319;28;20017;-82
2022/11/28 07:38:31;;;;;;;51.20;27.50;;;1.10;99.90;;;;;;5056418;28;20487;-82
2022/11/28 07:41:05;;;;;;;48.03;27.05;;;1.10;99.90;;;;;;5054924;28;20020;-82
2022/11/28 07:43:31;;;;;;;50.42;25.13;;;1.10;99.90;;;;;;5053853;28;20048;-82
2022/11/28 07:45:56;;;;;;;49.65;25.45;;;1.10;99.90;;;;;;5056854;28;20086;-82
2022/11/28 07:48:22;;;;;;;51.00;24.55;;;1.10;99.90;;;;;;5053489;28;20506;-83
2022/11/28 07:50:48;;;;;;;48.47;25.60;;;1.10;99.90;;;;;;5054760;28;20025;-82
2022/11/28 07:53:14;;;;;;;53.03;23.75;;;1.10;99.90;;;;;;5053290;28;20017;-82
2022/11/28 07:55:39;;;;;;;52.17;23.88;;;1.10;99.90;;;;;;5053507;28;20466;-82
2022/11/28 07:58:05;;;;;;;57.28;26.85;;;1.10;99.90;;;;;;5054729;28;20386;-83
2022/11/28 08:00:32;;;;;;;50.33;25.67;;;1.10;99.90;;;;;;5074534;28;20105;-82
2022/11/28 08:02:58;;;;;;;50.70;24.52;;;1.10;99.90;;;;;;5075443;28;20027;-83
2022/11/28 08:05:23;;;;;;;45.25;23.30;;;1.10;99.90;;;;;;5074586;28;20021;-82
2022/11/28 08:07:50;;;;;;;47.40;23.92;;;1.10;99.90;;;;;;5074986;28;20036;-83
2022/11/28 08:10:16;;;;;;;45.17;23.80;;;1.10;99.90;;;;;;5074545;28;20028;-82
2022/11/28 08:12:41;;;;;;;47.92;22.73;;;1.20;99.90;;;;;;5074448;28;20017;-82
2022/11/28 08:15:07;;;;;;;46.50;23.67;;;1.20;99.90;;;;;;5073012;28;20025;-83
2022/11/28 08:17:34;;;;;;;44.75;25.30;;;1.20;99.90;;;;;;5072837;28;20024;-82
2022/11/28 08:20:00;;;;;;;43.90;23.80;;;1.20;99.90;;;;;;5074563;28;20079;-82
2022/11/28 08:22:27;;;;;;;44.25;24.33;;;1.20;99.90;;;;;;5068810;28;20091;-81
2022/11/28 08:24:52;;;;;;;45.45;22.55;;;1.20;99.90;;;;;;5053827;28;20105;-81
2022/11/28 08:27:18;;;;;;;47.40;23.58;;;1.30;99.90;;;;;;5053617;28;20116;-82
2022/11/28 08:29:44;;;;;;;48.30;23.85;;;1.30;99.90;;;;;;5052615;28;20025;-81
2022/11/28 08:32:09;;;;;;;42.88;21.80;;;1.30;99.90;;;;;;5048995;28;20029;-82
2022/11/28 08:34:35;;;;;;;41.65;22.58;;;1.30;99.90;;;;;;5042631;28;20044;-82
2022/11/28 08:37:01;;;;;;;41.72;21.75;;;1.40;99.90;;;;;;5046545;28;20024;-82
2022/11/28 08:39:26;;;;;;;43.50;21.33;;;1.40;99.90;;;;;;5052277;28;20029;-82
2022/11/28 08:41:56;;;;;;;45.78;23.83;;;1.40;99.90;;;;;;5053848;28;20136;-82
2022/11/28 08:44:22;;;;;;;42.60;22.42;;;1.50;99.90;;;;;;5052116;28;20087;-81
2022/11/28 08:46:47;;;;;;;37.92;22.35;;;1.50;99.90;;;;;;5053430;28;20066;-82
2022/11/28 08:49:13;;;;;;;42.03;22.80;;;1.50;99.90;;;;;;5071994;28;20032;-82
2022/11/28 08:51:39;;;;;;;39.40;21.13;;;1.50;99.90;;;;;;5054844;28;20034;-81
2022/11/28 08:54:05;;;;;;;39.38;20.17;;;1.60;99.90;;;;;;5051784;28;20044;-82
2022/11/28 08:56:30;;;;;;;43.50;20.38;;;1.60;99.90;;;;;;5046431;28;20032;-81
2022/11/28 08:58:56;;;;;;;38.22;19.48;;;1.60;99.90;;;;;;5038792;28;20026;-82
2022/11/28 09:01:23;;;;;;;39.58;20.83;;;1.60;99.90;;;;;;5043594;28;20029;-82
2022/11/28 09:03:50;;;;;;;38.05;20.65;;;1.70;99.90;;;;;;5045123;28;20048;-81
2022/11/28 09:06:16;;;;;;;42.45;20.27;;;1.70;99.90;;;;;;5051794;28;20041;-82
2022/11/28 09:08:42;;;;;;;34.78;21.08;;;1.70;99.90;;;;;;5045839;28;20017;-82
2022/11/28 09:11:10;;;;;;;38.90;19.75;;;1.80;99.90;;;;;;5032050;28;20026;-81
2022/11/28 09:13:36;;;;;;;33.28;18.50;;;1.90;99.90;;;;;;5031860;28;20025;-82
2022/11/28 09:16:03;;;;;;;38.15;20.85;;;1.80;99.90;;;;;;5037424;28;20075;-82
2022/11/28 09:18:29;;;;;;;36.60;19.40;;;1.90;99.90;;;;;;5040382;28;20380;-82
2022/11/28 09:21:03;;;;;;;34.17;18.85;;;1.90;99.90;;;;;;5038822;28;20029;-82
2022/11/28 09:23:29;;;;;;;34.90;18.83;;;2.00;99.90;;;;;;5050342;28;20540;-82
2022/11/28 09:25:55;;;;;;;42.13;20.60;;;2.10;99.90;;;;;;5053102;28;20033;-82
2022/11/28 09:28:21;;;;;;;43.50;20.58;;;2.10;99.90;;;;;;5052874;28;20029;-82
2022/11/28 09:30:47;;;;;;;35.50;19.40;;;2.10;99.90;;;;;;5046082;28;20106;-82
2022/11/28 09:33:12;;;;;;;35.85;19.13;;;2.20;99.90;;;;;;5043486;28;20022;-82
2022/11/28 09:35:39;;;;;;;36.33;18.67;;;2.20;99.90;;;;;;5038092;28;20028;-82
2022/11/28 09:38:05;;;;;;;35.50;18.75;;;2.20;99.90;;;;;;5045574;28;20021;-82
2022/11/28 09:40:36;;;;;;;34.28;19.15;;;2.20;99.90;;;;;;5050943;28;20351;-81
2022/11/28 09:43:07;;;;;;;38.47;18.70;;;2.20;99.90;;;;;;5050809;28;20045;-82
2022/11/28 09:45:33;;;;;;;36.88;20.17;;;2.30;99.90;;;;;;5051452;28;20055;-82
2022/11/28 09:48:11;;;;;;;38.60;18.50;;;2.30;99.90;;;;;;5053177;28;20490;-82
2022/11/28 09:50:40;;;;;;;36.22;17.45;;;2.30;99.90;;;;;;5052844;28;20427;-82
2022/11/28 09:53:35;;;;;;;34.92;17.65;;;2.40;99.90;;;;;;5051348;28;20033;-82
2022/11/28 09:56:18;;;;;;;29.90;17.17;;;2.30;99.90;;;;;;5051420;28;20028;-82
2022/11/28 09:59:01;;;;;;;35.95;18.45;;;2.40;99.90;;;;;;5052714;28;20051;-82
2022/11/28 10:01:41;;;;;;;30.10;15.70;;;2.50;99.90;;;;;;5052693;28;20053;-80
2022/11/28 10:04:36;;;;;;;32.15;18.02;;;2.50;99.90;;;;;;5066115;28;20074;-81
2022/11/28 10:07:28;;;;;;;37.60;18.75;;;2.50;99.90;;;;;;5072299;28;20062;-79
2022/11/28 10:10:30;;;;;;;31.23;17.80;;;2.50;99.90;;;;;;5050551;28;20020;-81
2022/11/28 10:13:22;;;;;;;31.83;17.17;;;2.60;99.90;;;;;;5051293;28;20036;-81
2022/11/28 10:15:54;;;;;;;34.55;16.85;;;2.50;99.90;;;;;;5056056;28;20463;-81
2022/11/28 10:18:38;;;;;;;33.38;18.90;;;2.50;99.90;;;;;;5055032;28;20059;-81
2022/11/28 10:21:30;;;;;;;34.88;18.60;;;2.60;99.90;;;;;;5055027;28;20390;-81
2022/11/28 10:24:00;;;;;;;34.40;16.60;;;2.70;99.90;;;;;;5052138;28;20478;-81
2022/11/28 10:26:30;;;;;;;34.22;17.88;;;2.70;99.90;;;;;;5052363;28;20044;-80
2022/11/28 10:28:58;;;;;;;33.53;18.48;;;2.80;99.90;;;;;;5050296;28;20032;-81
2022/11/28 10:31:27;;;;;;;32.45;17.05;;;2.80;99.90;;;;;;5054834;28;20017;-81
2022/11/28 10:34:13;;;;;;;34.58;16.17;;;2.80;99.90;;;;;;5052432;28;20025;-81
2022/11/28 10:37:00;;;;;;;35.22;17.08;;;2.80;99.90;;;;;;5055057;28;20032;-82
2022/11/28 10:39:26;;;;;;;30.95;17.15;;;2.80;99.90;;;;;;5055776;28;20024;-81
2022/11/28 10:42:11;;;;;;;28.60;16.90;;;2.80;99.90;;;;;;5055828;28;20390;-82
2022/11/28 10:44:56;;;;;;;27.13;15.30;;;2.80;99.90;;;;;;5055558;28;20076;-81
2022/11/28 10:47:50;;;;;;;25.77;14.07;;;2.80;99.90;;;;;;5047497;28;20124;-80
2022/11/28 10:50:55;;;;;;;28.10;15.77;;;2.80;99.90;;;;;;5055684;28;20032;-80
2022/11/28 10:53:26;;;;;;;27.17;16.55;;;2.90;99.90;;;;;;5055596;28;20394;-81
2022/11/28 10:56:09;;;;;;;31.40;17.10;;;3.00;99.90;;;;;;5055380;28;20025;-81
2022/11/28 10:58:55;;;;;;;;;;;3.00;99.90;;;;;;5054638;28;20027;-82
2022/11/28 11:01:21;;;;;;;27.33;15.63;;;3.10;99.90;;;;;;5053718;28;19959;-81
2022/11/28 11:03:47;;;;;;;29.35;15.55;;;3.10;99.90;;;;;;5066432;28;20028;-82
2022/11/28 11:06:13;;;;;;;29.55;15.05;;;3.10;99.90;;;;;;5070950;28;20037;-80
2022/11/28 11:08:40;;;;;;;27.73;14.98;;;3.20;99.90;;;;;;5069665;28;20024;-80
2022/11/28 11:11:32;;;;;;;31.65;16.10;;;3.20;99.90;;;;;;5052451;28;20534;-81
2022/11/28 11:14:05;;;;;;;28.67;16.10;;;3.20;99.90;;;;;;5050902;28;20017;-81
2022/11/28 11:16:50;;;;;;;31.75;15.50;;;3.20;99.90;;;;;;5049576;28;20040;-82
2022/11/28 11:19:31;;;;;;;31.52;15.25;;;3.30;99.90;;;;;;5053493;28;20119;-82
2022/11/28 11:22:23;;;;;;;27.85;15.80;;;3.20;99.90;;;;;;5053631;28;20435;-82
2022/11/28 11:25:19;;;;;;;22.48;15.10;;;3.30;99.90;;;;;;5053666;28;20075;-82
2022/11/28 11:28:01;;;;;;;25.67;13.65;;;3.30;99.90;;;;;;5053744;28;20064;-82
2022/11/28 11:30:33;;;;;;;26.30;14.50;;;3.40;99.90;;;;;;5051522;28;20829;-82
2022/11/28 11:33:00;;;;;;;30.30;15.60;;;3.40;99.90;;;;;;5051485;28;20032;-82
2022/11/28 11:35:29;;;;;;;33.13;16.38;;;3.40;99.90;;;;;;5051966;28;20017;-81
2022/11/28 11:38:22;;;;;;;27.25;15.73;;;3.50;99.90;;;;;;5052534;28;20536;-82
2022/11/28 11:40:51;;;;;;;28.98;15.75;;;3.50;99.90;;;;;;5051374;28;20029;-82
2022/11/28 11:43:34;;;;;;;29.52;15.95;;;3.50;99.90;;;;;;5053382;28;20132;-83
2022/11/28 11:46:04;;;;;;;37.17;18.40;;;3.50;99.90;;;;;;5054755;28;20025;-82
2022/11/28 11:48:37;;;;;;;34.42;17.73;;;3.60;99.90;;;;;;5054808;28;20048;-82
2022/11/28 11:51:03;;;;;;;25.48;14.50;;;3.60;99.90;;;;;;5052987;28;20104;-79
2022/11/28 11:53:28;;;;;;;36.15;16.75;;;3.60;99.90;;;;;;5052483;28;20025;-80
2022/11/28 11:55:57;;;;;;;40.03;19.05;;;3.60;99.90;;;;;;5063573;28;20048;-79
2022/11/28 11:58:31;;;;;;;35.17;18.25;;;3.70;99.90;;;;;;5046084;28;20447;-79
2022/11/28 12:00:58;;;;;;;34.22;17.38;;;3.80;99.90;;;;;;5073442;28;20475;-79
2022/11/28 12:03:34;;;;;;;29.85;15.15;;;3.80;99.90;;;;;;5066586;28;20055;-80
2022/11/28 12:06:08;;;;;;;24.38;13.98;;;3.80;99.90;;;;;;5072451;28;20021;-81
2022/11/28 12:08:41;;;;;;;25.52;13.30;;;3.80;99.90;;;;;;5070034;28;20081;-81
2022/11/28 12:11:22;;;;;;;22.98;13.77;;;3.80;99.90;;;;;;5071903;28;20020;-81
2022/11/28 12:13:49;;;;;;;28.95;15.35;;;3.80;99.90;;;;;;5053545;28;20044;-80
2022/11/28 12:16:33;;;;;;;28.38;14.93;;;3.90;99.90;;;;;;5073100;28;20111;-80
2022/11/28 12:19:21;;;;;;;24.90;13.80;;;4.00;99.90;;;;;;5071888;28;20033;-81
2022/11/28 12:22:12;;;;;;;24.25;13.27;;;4.00;99.90;;;;;;5071702;28;20020;-80
2022/11/28 12:24:44;;;;;;;23.50;13.73;;;4.10;99.90;;;;;;5050368;28;20040;-81
2022/11/28 12:27:29;;;;;;;29.88;14.77;;;4.10;99.90;;;;;;5052356;28;20059;-81
2022/11/28 12:30:10;;;;;;;31.67;13.75;;;4.10;99.90;;;;;;5054514;28;20028;-81
2022/11/28 12:33:17;;;;;;;24.60;14.02;;;4.10;99.90;;;;;;5049880;28;20037;-81
2022/11/28 12:36:09;;;;;;;28.50;14.80;;;4.00;99.90;;;;;;5048562;28;20091;-79
2022/11/28 12:38:59;;;;;;;27.45;14.65;;;4.10;99.90;;;;;;5053820;28;20131;-82
2022/11/28 12:41:34;;;;;;;23.23;12.43;;;4.00;99.90;;;;;;5052249;28;20490;-84
2022/11/28 12:44:25;;;;;;;24.48;13.25;;;4.10;99.90;;;;;;5052181;28;20052;-83
2022/11/28 12:47:34;;;;;;;25.58;13.55;;;4.10;99.90;;;;;;5051305;28;20146;-84
2022/11/28 12:50:18;;;;;;;27.05;14.63;;;4.10;99.90;;;;;;5018113;28;20063;-82
2022/11/28 12:52:43;;;;;;;;;;;4.10;99.90;;;;;;5066965;28;20101;-84
2022/11/28 12:55:34;;;;;;;28.67;14.18;;;4.10;99.90;;;;;;5072444;28;20346;-83
2022/11/28 12:58:28;;;;;;;25.35;14.43;;;4.00;99.90;;;;;;5059822;28;20049;-84
2022/11/28 13:00:57;;;;;;;27.75;14.45;;;4.10;99.90;;;;;;5071171;28;20870;-81
2022/11/28 13:03:25;;;;;;;26.77;15.05;;;4.00;99.90;;;;;;5068251;28;20028;-83
2022/11/28 13:06:12;;;;;;;28.25;14.77;;;4.00;99.90;;;;;;5069484;28;20039;-83